createdAt,value
2023-04-17T00:00:58.192Z,92998.97
2023-04-17T00:01:55.677Z,93000.38
2023-04-17T00:02:53.129Z,93003.97
2023-04-17T00:03:52.714Z,93002.28
2023-04-17T00:04:52.617Z,93006.66
2023-04-17T00:05:49.404Z,92959.22
2023-04-17T00:06:46.038Z,93006.13
2023-04-17T00:07:43.640Z,93004.44
2023-04-17T00:08:40.849Z,92939.16
2023-04-17T00:09:37.583Z,93003.50
2023-04-17T00:10:34.213Z,93004.78
2023-04-17T00:11:30.895Z,92993.72
2023-04-17T00:12:27.434Z,93005.72
2023-04-17T00:13:24.081Z,93006.47
2023-04-17T00:14:20.719Z,93004.69
2023-04-17T00:15:17.305Z,93001.66
2023-04-17T00:16:13.922Z,93005.66
2023-04-17T00:17:10.654Z,93003.66
2023-04-17T00:18:07.179Z,93001.16
2023-04-17T00:19:03.789Z,92993.59
2023-04-17T00:20:00.655Z,93007.94
2023-04-17T00:20:57.361Z,93004.81
2023-04-17T00:21:53.926Z,93001.50
2023-04-17T00:22:50.565Z,93003.22
2023-04-17T00:23:47.171Z,93002.88
2023-04-17T00:24:43.924Z,93014.44
2023-04-17T00:25:40.506Z,92999.81
2023-04-17T00:26:37.064Z,92999.59
2023-04-17T00:27:33.691Z,93004.25
2023-04-17T00:28:30.592Z,93000.81
2023-04-17T00:29:27.394Z,93000.41
2023-04-17T00:30:24.051Z,93002.13
2023-04-17T00:31:20.859Z,92993.59
2023-04-17T00:32:17.460Z,92979.41
2023-04-17T00:33:14.145Z,93002.47
2023-04-17T00:34:10.741Z,92996.03
2023-04-17T00:35:07.734Z,92997.56
2023-04-17T00:36:04.759Z,93009.09
2023-04-17T00:37:01.393Z,92993.66
2023-04-17T00:37:57.932Z,92996.47
2023-04-17T00:38:54.562Z,92987.88
2023-04-17T00:39:51.255Z,92985.84
2023-04-17T00:40:48.931Z,93001.06
2023-04-17T00:41:45.546Z,92986.50
2023-04-17T00:42:42.202Z,93002.47
2023-04-17T00:43:39.011Z,92998.00
2023-04-17T00:44:35.616Z,92997.41
2023-04-17T00:45:32.775Z,92997.22
2023-04-17T00:46:29.921Z,93006.28
2023-04-17T00:47:27.163Z,92995.19
2023-04-17T00:48:24.297Z,92998.69
2023-04-17T00:49:20.921Z,92998.66
2023-04-17T00:50:17.781Z,92999.47
2023-04-17T00:51:14.539Z,92977.22
2023-04-17T00:52:11.690Z,93002.59
2023-04-17T00:53:08.397Z,92989.81
2023-04-17T00:54:05.683Z,92976.88
2023-04-17T00:55:02.749Z,92996.94
2023-04-17T00:56:01.146Z,92956.94
2023-04-17T00:56:58.289Z,92971.13
2023-04-17T00:57:56.252Z,92995.16
2023-04-17T00:58:54.686Z,92995.84
2023-04-17T00:59:51.327Z,92930.09
2023-04-17T01:00:49.704Z,92991.75
2023-04-17T01:01:46.360Z,92976.22
2023-04-17T01:02:43.205Z,92989.47
2023-04-17T01:03:40.083Z,92984.69
2023-04-17T01:04:36.913Z,92988.63
2023-04-17T01:05:35.627Z,92987.16
2023-04-17T01:06:32.250Z,92992.56
2023-04-17T01:07:30.540Z,92995.84
2023-04-17T01:08:27.384Z,92990.59
2023-04-17T01:09:24.064Z,92990.66
2023-04-17T01:10:20.744Z,92981.41
2023-04-17T01:11:17.681Z,92991.81
2023-04-17T01:12:22.088Z,92989.72
2023-04-17T01:13:18.723Z,92988.41
2023-04-17T01:14:15.535Z,92986.88
2023-04-17T01:15:12.670Z,92982.19
2023-04-17T01:16:09.257Z,92986.22
2023-04-17T01:17:05.955Z,92986.31
2023-04-17T01:18:03.548Z,92984.31
2023-04-17T01:19:00.867Z,92987.09
2023-04-17T01:19:57.985Z,92981.47
2023-04-17T01:20:54.532Z,92986.97
2023-04-17T01:21:51.221Z,92986.97
2023-04-17T01:22:53.514Z,92992.91
2023-04-17T01:23:54.684Z,92987.56
2023-04-17T01:24:51.350Z,92986.28
2023-04-17T01:25:48.043Z,92987.09
2023-04-17T01:26:44.671Z,92987.28
2023-04-17T01:27:42.178Z,92972.06
2023-04-17T01:28:38.743Z,92983.38
2023-04-17T01:29:35.776Z,92980.19
2023-04-17T01:30:32.562Z,92994.50
2023-04-17T01:31:29.434Z,92987.66
2023-04-17T01:32:26.077Z,92990.75
2023-04-17T01:33:22.657Z,92989.38
2023-04-17T01:34:19.241Z,92992.66
2023-04-17T01:35:16.077Z,92991.38
2023-04-17T01:36:12.843Z,92959.06
2023-04-17T01:37:09.451Z,92994.72
2023-04-17T01:38:06.196Z,92936.00
2023-04-17T01:39:02.968Z,92995.81
2023-04-17T01:39:59.954Z,92999.00
2023-04-17T01:40:56.572Z,93003.50
2023-04-17T01:41:56.569Z,92995.97
2023-04-17T01:42:53.325Z,92997.22
2023-04-17T01:43:50.388Z,92893.91
2023-04-17T01:44:47.038Z,92992.53
2023-04-17T01:45:43.582Z,92995.84
2023-04-17T01:46:40.234Z,93006.81
2023-04-17T01:47:37.161Z,92996.47
2023-04-17T01:48:34.225Z,92997.72
2023-04-17T01:49:30.937Z,92990.53
2023-04-17T01:50:27.883Z,92992.75
2023-04-17T01:51:24.557Z,92944.59
2023-04-17T01:52:21.238Z,92987.34
2023-04-17T01:53:17.825Z,92983.53
2023-04-17T01:54:15.595Z,92995.97
2023-04-17T01:55:12.432Z,92987.84
2023-04-17T01:56:09.165Z,92990.47
2023-04-17T01:57:05.787Z,92975.38
2023-04-17T01:58:02.406Z,92992.13
2023-04-17T01:58:59.037Z,92970.19
2023-04-17T01:59:56.095Z,92991.66
2023-04-17T02:00:52.693Z,92965.09
2023-04-17T02:01:50.257Z,92989.13
2023-04-17T02:02:47.129Z,92993.81
2023-04-17T02:03:44.027Z,92990.53
2023-04-17T02:04:40.976Z,92992.06
2023-04-17T02:05:37.641Z,92986.75
2023-04-17T02:06:34.266Z,92989.94
2023-04-17T02:07:30.864Z,92993.31
2023-04-17T02:08:27.557Z,92982.31
2023-04-17T02:09:24.108Z,92987.09
2023-04-17T02:10:20.764Z,92987.22
2023-04-17T02:11:17.406Z,92968.41
2023-04-17T02:12:13.967Z,92987.66
2023-04-17T02:13:10.855Z,92979.84
2023-04-17T02:14:08.280Z,92982.66
2023-04-17T02:15:05.334Z,92985.34
2023-04-17T02:16:02.362Z,92980.63
2023-04-17T02:16:59.097Z,92948.03
2023-04-17T02:17:55.837Z,92967.88
2023-04-17T02:18:52.580Z,92983.97
2023-04-17T02:19:49.157Z,92980.06
2023-04-17T02:20:45.727Z,92981.72
2023-04-17T02:21:42.444Z,92986.16
2023-04-17T02:22:39.035Z,92981.47
2023-04-17T02:23:35.869Z,92915.53
2023-04-17T02:24:32.520Z,92980.97
2023-04-17T02:25:29.461Z,92978.28
2023-04-17T02:26:26.167Z,92968.22
2023-04-17T02:27:22.772Z,92973.16
2023-04-17T02:28:19.440Z,92978.41
2023-04-17T02:29:16.106Z,92978.34
2023-04-17T02:30:12.949Z,92974.72
2023-04-17T02:31:10.957Z,92979.34
2023-04-17T02:32:07.668Z,92980.97
2023-04-17T02:33:04.248Z,92972.56
2023-04-17T02:34:00.955Z,92973.63
2023-04-17T02:34:57.499Z,92970.59
2023-04-17T02:35:54.071Z,92970.25
2023-04-17T02:36:50.987Z,92982.19
2023-04-17T02:37:47.993Z,92952.38
2023-04-17T02:38:44.625Z,92968.78
2023-04-17T02:39:41.256Z,92926.97
2023-04-17T02:40:37.850Z,92970.91
2023-04-17T02:41:34.473Z,92971.22
2023-04-17T02:42:31.070Z,92978.63
2023-04-17T02:43:27.702Z,92974.63
2023-04-17T02:44:24.302Z,92979.28
2023-04-17T02:45:20.961Z,92988.34
2023-04-17T02:46:17.615Z,92977.81
2023-04-17T02:47:14.207Z,92950.06
2023-04-17T02:48:10.819Z,92979.84
2023-04-17T02:49:07.459Z,92985.06
2023-04-17T02:50:04.932Z,92981.44
2023-04-17T02:51:01.645Z,92981.25
2023-04-17T02:51:58.479Z,92988.81
2023-04-17T02:52:55.088Z,92977.19
2023-04-17T02:53:51.664Z,92981.69
2023-04-17T02:54:48.466Z,92969.84
2023-04-17T02:55:45.222Z,92988.63
2023-04-17T02:56:41.789Z,92978.91
2023-04-17T02:57:38.392Z,92984.53
2023-04-17T02:58:35.042Z,92981.88
2023-04-17T02:59:31.774Z,92982.53
2023-04-17T03:00:29.195Z,92959.69
2023-04-17T03:01:26.408Z,92943.13
2023-04-17T03:02:23.469Z,92978.25
2023-04-17T03:03:20.456Z,92985.81
2023-04-17T03:04:17.137Z,92980.44
2023-04-17T03:05:15.047Z,92976.91
2023-04-17T03:06:11.684Z,92980.88
2023-04-17T03:07:10.406Z,92979.94
2023-04-17T03:08:07.258Z,92972.91
2023-04-17T03:09:03.980Z,92987.19
2023-04-17T03:10:00.573Z,92986.88
2023-04-17T03:10:57.154Z,92988.19
2023-04-17T03:11:53.762Z,92882.31
2023-04-17T03:12:50.775Z,92953.09
2023-04-17T03:13:47.375Z,92979.94
2023-04-17T03:14:44.257Z,92986.69
2023-04-17T03:15:41.267Z,92977.97
2023-04-17T03:16:37.858Z,92992.19
2023-04-17T03:17:34.559Z,92954.88
2023-04-17T03:18:31.978Z,92991.00
2023-04-17T03:19:28.575Z,92984.53
2023-04-17T03:20:25.208Z,92988.72
2023-04-17T03:21:21.790Z,92924.97
2023-04-17T03:22:18.539Z,92985.53
2023-04-17T03:23:15.452Z,92984.41
2023-04-17T03:24:12.867Z,92985.91
2023-04-17T03:25:10.050Z,92957.34
2023-04-17T03:26:06.672Z,92984.84
2023-04-17T03:27:03.347Z,92987.84
2023-04-17T03:27:59.966Z,92995.63
2023-04-17T03:28:56.627Z,92979.22
2023-04-17T03:29:55.539Z,92988.41
2023-04-17T03:30:52.219Z,92988.84
2023-04-17T03:31:48.893Z,92990.00
2023-04-17T03:32:45.526Z,92984.84
2023-04-17T03:33:42.195Z,92987.19
2023-04-17T03:34:38.849Z,92988.84
2023-04-17T03:35:35.526Z,92981.00
2023-04-17T03:36:32.553Z,92985.94
2023-04-17T03:37:29.158Z,92988.47
2023-04-17T03:38:25.803Z,92985.31
2023-04-17T03:39:22.478Z,92983.69
2023-04-17T03:40:19.083Z,92992.09
2023-04-17T03:41:15.786Z,92995.94
2023-04-17T03:42:14.783Z,92992.94
2023-04-17T03:43:11.488Z,92993.34
2023-04-17T03:44:09.211Z,92983.72
2023-04-17T03:45:06.413Z,92990.84
2023-04-17T03:46:03.016Z,92992.97
2023-04-17T03:46:59.624Z,93004.03
2023-04-17T03:47:56.322Z,92997.38
2023-04-17T03:48:52.949Z,92990.84
2023-04-17T03:49:49.551Z,92995.91
2023-04-17T03:50:46.226Z,92996.88
2023-04-17T03:51:42.917Z,92986.19
2023-04-17T03:52:39.469Z,92987.34
2023-04-17T03:53:36.235Z,92981.56
2023-04-17T03:54:35.688Z,92995.28
2023-04-17T03:55:32.723Z,92994.56
2023-04-17T03:56:29.297Z,92990.97
2023-04-17T03:57:26.463Z,92991.63
2023-04-17T03:58:23.026Z,93001.00
2023-04-17T03:59:19.647Z,92991.56
2023-04-17T04:00:16.804Z,93000.50
2023-04-17T04:01:14.606Z,92996.50
2023-04-17T04:02:11.393Z,92962.91
2023-04-17T04:03:08.184Z,93003.53
2023-04-17T04:04:05.210Z,92998.22
2023-04-17T04:05:02.061Z,92986.00
2023-04-17T04:05:58.760Z,92987.53
2023-04-17T04:06:57.576Z,92996.94
2023-04-17T04:07:54.456Z,92993.28
2023-04-17T04:08:51.555Z,93008.03
2023-04-17T04:09:48.169Z,92996.75
2023-04-17T04:10:45.405Z,92946.41
2023-04-17T04:11:41.990Z,92988.34
2023-04-17T04:12:38.582Z,92966.50
2023-04-17T04:13:35.322Z,92997.09
2023-04-17T04:14:31.947Z,92959.72
2023-04-17T04:15:28.563Z,92991.34
2023-04-17T04:16:25.219Z,92993.75
2023-04-17T04:17:21.916Z,92984.72
2023-04-17T04:18:18.770Z,92993.25
2023-04-17T04:19:15.481Z,92959.22
2023-04-17T04:20:12.150Z,92996.31
2023-04-17T04:21:08.823Z,92990.34
2023-04-17T04:22:06.903Z,92981.06
2023-04-17T04:23:04.679Z,92982.31
2023-04-17T04:24:02.717Z,92996.09
2023-04-17T04:24:59.438Z,92991.13
2023-04-17T04:26:01.705Z,92996.25
2023-04-17T04:27:04.476Z,92997.06
2023-04-17T04:28:02.257Z,92979.50
2023-04-17T04:29:00.158Z,92994.75
2023-04-17T04:29:58.934Z,92997.06
2023-04-17T04:30:55.837Z,92995.94
2023-04-17T04:31:52.853Z,92992.41
2023-04-17T04:32:49.594Z,92997.13
2023-04-17T04:33:46.566Z,92954.31
2023-04-17T04:34:44.670Z,92972.94
2023-04-17T04:35:41.921Z,93002.94
2023-04-17T04:36:50.309Z,92990.94
2023-04-17T04:37:46.903Z,92999.00
2023-04-17T04:38:43.506Z,92994.69
2023-04-17T04:39:40.162Z,92989.25
2023-04-17T04:40:38.454Z,92971.88
2023-04-17T04:41:35.098Z,92987.50
2023-04-17T04:42:31.826Z,92995.16
2023-04-17T04:43:33.576Z,92986.44
2023-04-17T04:44:30.277Z,92995.84
2023-04-17T04:45:26.927Z,92930.25
2023-04-17T04:46:23.512Z,93002.13
2023-04-17T04:47:20.404Z,92992.97
2023-04-17T04:48:17.022Z,93000.97
2023-04-17T04:49:13.773Z,92992.44
2023-04-17T04:50:10.748Z,92995.38
2023-04-17T04:51:07.555Z,92991.34
2023-04-17T04:52:04.240Z,92990.78
2023-04-17T04:53:00.870Z,92996.50
2023-04-17T04:53:57.560Z,92998.31
2023-04-17T04:54:54.287Z,92994.69
2023-04-17T04:55:50.884Z,92949.31
2023-04-17T04:56:47.420Z,92996.34
2023-04-17T04:57:43.967Z,92991.91
2023-04-17T04:58:40.586Z,92992.13
2023-04-17T04:59:38.961Z,92988.28
2023-04-17T05:00:35.756Z,92997.94
2023-04-17T05:01:32.793Z,92993.00
2023-04-17T05:02:29.667Z,92994.91
2023-04-17T05:03:26.456Z,92995.56
2023-04-17T05:04:23.723Z,92966.50
2023-04-17T05:05:20.617Z,92995.09
2023-04-17T05:06:17.245Z,92998.50
2023-04-17T05:07:13.994Z,92999.25
2023-04-17T05:08:10.666Z,92992.38
2023-04-17T05:09:07.421Z,93000.81
2023-04-17T05:10:06.358Z,92991.47
2023-04-17T05:11:03.695Z,92994.75
2023-04-17T05:12:00.305Z,92995.47
2023-04-17T05:12:56.899Z,92999.63
2023-04-17T05:13:53.504Z,93003.03
2023-04-17T05:14:50.162Z,92996.53
2023-04-17T05:15:46.780Z,92989.72
2023-04-17T05:16:43.403Z,92995.78
2023-04-17T05:17:40.171Z,92994.97
2023-04-17T05:18:36.810Z,92996.72
2023-04-17T05:19:33.526Z,93002.66
2023-04-17T05:20:30.822Z,93001.19
2023-04-17T05:21:29.239Z,93004.53
2023-04-17T05:22:27.615Z,93009.81
2023-04-17T05:23:24.279Z,93000.19
2023-04-17T05:24:20.898Z,93006.19
2023-04-17T05:25:19.734Z,93001.53
2023-04-17T05:26:16.617Z,93007.50
2023-04-17T05:27:13.206Z,93010.34
2023-04-17T05:28:09.793Z,93003.53
2023-04-17T05:29:06.670Z,92997.88
2023-04-17T05:30:03.852Z,93001.50
2023-04-17T05:31:00.774Z,93004.72
2023-04-17T05:31:57.557Z,92985.50
2023-04-17T05:32:54.551Z,93004.09
2023-04-17T05:33:51.221Z,93005.88
2023-04-17T05:34:47.997Z,93007.84
2023-04-17T05:35:44.655Z,93005.69
2023-04-17T05:36:41.372Z,93000.19
2023-04-17T05:37:38.038Z,93001.44
2023-04-17T05:38:34.677Z,93001.81
2023-04-17T05:39:31.242Z,92983.53
2023-04-17T05:40:27.887Z,92999.81
2023-04-17T05:41:24.677Z,92990.81
2023-04-17T05:42:21.292Z,93010.63
2023-04-17T05:43:17.904Z,93013.47
2023-04-17T05:44:14.470Z,93005.84
2023-04-17T05:45:18.397Z,93005.72
2023-04-17T05:46:15.058Z,93008.09
2023-04-17T05:47:11.670Z,93010.44
2023-04-17T05:48:08.533Z,93003.94
2023-04-17T05:49:05.122Z,93000.66
2023-04-17T05:50:01.799Z,93008.50
2023-04-17T05:50:58.463Z,93005.44
2023-04-17T05:51:55.169Z,92970.91
2023-04-17T05:52:52.080Z,93019.19
2023-04-17T05:53:48.854Z,93001.22
2023-04-17T05:54:45.654Z,93008.81
2023-04-17T05:55:42.330Z,92975.84
2023-04-17T05:56:39.362Z,93012.19
2023-04-17T05:57:36.467Z,93023.56
2023-04-17T05:58:33.163Z,93015.63
2023-04-17T05:59:29.765Z,92965.97
2023-04-17T06:00:26.327Z,93017.59
2023-04-17T06:01:23.073Z,93014.00
2023-04-17T06:02:19.788Z,93024.63
2023-04-17T06:03:18.308Z,93012.59
2023-04-17T06:04:15.598Z,93030.66
2023-04-17T06:05:14.254Z,93029.56
2023-04-17T06:06:11.434Z,93029.16
2023-04-17T06:07:08.326Z,93025.25
2023-04-17T06:08:05.083Z,93028.59
2023-04-17T06:09:02.368Z,93036.41
2023-04-17T06:09:59.494Z,93024.97
2023-04-17T06:10:56.423Z,93016.78
2023-04-17T06:11:53.020Z,93032.06
2023-04-17T06:12:49.756Z,92994.56
2023-04-17T06:13:46.929Z,93031.81
2023-04-17T06:14:43.867Z,93036.59
2023-04-17T06:15:40.554Z,93035.00
2023-04-17T06:16:37.277Z,93036.84
2023-04-17T06:17:33.941Z,93039.19
2023-04-17T06:18:30.648Z,93041.06
2023-04-17T06:19:27.335Z,93035.63
2023-04-17T06:20:24.058Z,93032.97
2023-04-17T06:21:21.287Z,93036.94
2023-04-17T06:22:17.898Z,93045.75
2023-04-17T06:23:14.582Z,93041.72
2023-04-17T06:24:11.246Z,93043.28
2023-04-17T06:25:08.270Z,93046.31
2023-04-17T06:26:04.942Z,93048.06
2023-04-17T06:27:02.105Z,93044.00
2023-04-17T06:27:58.647Z,93044.06
2023-04-17T06:28:55.820Z,93012.47
2023-04-17T06:29:52.406Z,93047.81
2023-04-17T06:30:49.030Z,93039.16
2023-04-17T06:31:46.349Z,93050.63
2023-04-17T06:32:43.541Z,93007.09
2023-04-17T06:33:40.298Z,93047.38
2023-04-17T06:34:43.477Z,93050.25
2023-04-17T06:35:48.979Z,93051.88
2023-04-17T06:36:45.661Z,92953.97
2023-04-17T06:37:42.389Z,93055.41
2023-04-17T06:38:38.932Z,93047.63
2023-04-17T06:39:35.600Z,93022.25
2023-04-17T06:40:33.110Z,93021.53
2023-04-17T06:41:29.966Z,93019.50
2023-04-17T06:42:26.576Z,93050.56
2023-04-17T06:43:23.276Z,93055.63
2023-04-17T06:44:19.903Z,93052.03
2023-04-17T06:45:16.707Z,93052.44
2023-04-17T06:46:13.389Z,93047.50
2023-04-17T06:47:10.033Z,93052.88
2023-04-17T06:48:06.777Z,93039.22
2023-04-17T06:49:03.435Z,93057.78
2023-04-17T06:50:00.036Z,93057.38
2023-04-17T06:50:56.675Z,93043.88
2023-04-17T06:51:53.303Z,93037.94
2023-04-17T06:52:49.920Z,93044.13
2023-04-17T06:53:50.092Z,93021.19
2023-04-17T06:54:46.652Z,93059.09
2023-04-17T06:55:43.358Z,93053.38
2023-04-17T06:56:40.910Z,93054.22
2023-04-17T06:57:38.296Z,93060.13
2023-04-17T06:58:42.319Z,93055.88
2023-04-17T06:59:39.104Z,93054.69
2023-04-17T07:00:35.943Z,93046.56
2023-04-17T07:01:32.845Z,93057.69
2023-04-17T07:02:29.620Z,93042.25
2023-04-17T07:03:26.492Z,93048.78
2023-04-17T07:04:23.332Z,93053.19
2023-04-17T07:05:19.950Z,93052.81
2023-04-17T07:06:17.083Z,93048.88
2023-04-17T07:07:13.706Z,93048.03
2023-04-17T07:08:10.452Z,93054.88
2023-04-17T07:09:07.202Z,93048.47
2023-04-17T07:10:04.604Z,93045.94
2023-04-17T07:11:01.925Z,92955.38
2023-04-17T07:11:58.628Z,93038.53
2023-04-17T07:12:55.323Z,93049.75
2023-04-17T07:13:52.048Z,93042.38
2023-04-17T07:14:48.724Z,93042.44
2023-04-17T07:15:45.423Z,93049.72
2023-04-17T07:16:42.227Z,93054.31
2023-04-17T07:17:39.000Z,93042.31
2023-04-17T07:18:35.750Z,93003.88
2023-04-17T07:19:35.352Z,93048.25
2023-04-17T07:20:32.026Z,93056.31
2023-04-17T07:21:28.879Z,93060.91
2023-04-17T07:22:27.231Z,93058.16
2023-04-17T07:23:24.081Z,93059.66
2023-04-17T07:24:20.681Z,93041.28
2023-04-17T07:25:17.306Z,93060.16
2023-04-17T07:26:13.911Z,93054.81
2023-04-17T07:27:11.091Z,93057.41
2023-04-17T07:28:07.896Z,93060.16
2023-04-17T07:29:04.588Z,93063.53
2023-04-17T07:30:01.356Z,93062.84
2023-04-17T07:30:58.252Z,93060.13
2023-04-17T07:31:55.074Z,93053.69
2023-04-17T07:32:52.512Z,93066.75
2023-04-17T07:33:49.351Z,93066.75
2023-04-17T07:34:46.106Z,93066.34
2023-04-17T07:35:43.498Z,93064.47
2023-04-17T07:36:40.105Z,93069.34
2023-04-17T07:37:37.196Z,93071.69
2023-04-17T07:38:34.135Z,93042.13
2023-04-17T07:39:31.728Z,93071.25
2023-04-17T07:40:28.470Z,93046.78
2023-04-17T07:41:25.562Z,93070.56
2023-04-17T07:42:22.268Z,93062.91
2023-04-17T07:43:18.982Z,93070.50
2023-04-17T07:44:16.164Z,93065.53
2023-04-17T07:45:12.820Z,93063.97
2023-04-17T07:46:09.414Z,93065.47
2023-04-17T07:47:06.154Z,93065.47
2023-04-17T07:48:04.495Z,93068.59
2023-04-17T07:49:01.182Z,93066.66
2023-04-17T07:49:58.056Z,93061.75
2023-04-17T07:50:54.776Z,93042.91
2023-04-17T07:51:51.352Z,93058.34
2023-04-17T07:52:47.952Z,92966.31
2023-04-17T07:53:44.538Z,93057.56
2023-04-17T07:54:41.114Z,93064.81
2023-04-17T07:55:37.742Z,93065.97
2023-04-17T07:56:34.673Z,93066.78
2023-04-17T07:57:32.957Z,93062.16
2023-04-17T07:58:29.598Z,93064.47
2023-04-17T07:59:26.286Z,93068.63
2023-04-17T08:00:24.088Z,93068.22
2023-04-17T08:01:23.417Z,93074.44
2023-04-17T08:02:21.285Z,93078.66
2023-04-17T08:03:22.422Z,93053.72
2023-04-17T08:04:19.447Z,93078.25
2023-04-17T08:05:16.283Z,93069.06
2023-04-17T08:06:12.934Z,93077.09
2023-04-17T08:07:11.144Z,93040.34
2023-04-17T08:08:08.025Z,93033.78
2023-04-17T08:09:04.723Z,93069.00
2023-04-17T08:10:01.324Z,93072.81
2023-04-17T08:10:58.028Z,93070.91
2023-04-17T08:11:57.863Z,93068.28
2023-04-17T08:12:55.601Z,93072.91
2023-04-17T08:13:52.232Z,93030.34
2023-04-17T08:14:48.932Z,93072.88
2023-04-17T08:15:45.902Z,93072.91
2023-04-17T08:16:42.604Z,93072.50
2023-04-17T08:17:39.263Z,93069.44
2023-04-17T08:18:37.759Z,93078.25
2023-04-17T08:19:34.659Z,93072.91
2023-04-17T08:20:31.390Z,93070.19
2023-04-17T08:21:28.017Z,93069.81
2023-04-17T08:22:28.830Z,93074.44
2023-04-17T08:23:25.998Z,93070.97
2023-04-17T08:24:22.664Z,93071.31
2023-04-17T08:25:19.381Z,93065.50
2023-04-17T08:26:19.090Z,93057.09
2023-04-17T08:27:16.040Z,93061.34
2023-04-17T08:28:12.720Z,93060.91
2023-04-17T08:29:09.436Z,93060.47
2023-04-17T08:30:09.527Z,93065.53
2023-04-17T08:31:08.788Z,93066.72
2023-04-17T08:32:13.425Z,93062.47
2023-04-17T08:33:13.474Z,93065.44
2023-04-17T08:34:15.053Z,93069.78
2023-04-17T08:35:13.970Z,93070.91
2023-04-17T08:36:11.306Z,93061.34
2023-04-17T08:37:08.043Z,93066.75
2023-04-17T08:38:04.894Z,93066.00
2023-04-17T08:39:01.882Z,93075.47
2023-04-17T08:39:58.523Z,93069.81
2023-04-17T08:41:02.652Z,93069.44
2023-04-17T08:42:01.105Z,93063.31
2023-04-17T08:43:00.315Z,93065.22
2023-04-17T08:43:59.840Z,93066.38
2023-04-17T08:45:01.870Z,93063.69
2023-04-17T08:45:58.650Z,93070.59
2023-04-17T08:46:58.761Z,93062.16
2023-04-17T08:47:55.508Z,93065.13
2023-04-17T08:48:52.372Z,93068.59
2023-04-17T08:49:50.588Z,93067.78
2023-04-17T08:50:49.249Z,93064.75
2023-04-17T08:51:47.171Z,93057.47
2023-04-17T08:52:46.554Z,93073.25
2023-04-17T08:53:43.529Z,93067.53
2023-04-17T08:54:40.404Z,93068.31
2023-04-17T08:55:37.108Z,93059.25
2023-04-17T08:56:33.706Z,93069.78
2023-04-17T08:57:30.446Z,93067.91
2023-04-17T08:58:32.060Z,93069.44
2023-04-17T08:59:28.794Z,93064.88
2023-04-17T09:00:56.012Z,93077.91
2023-04-17T09:02:08.983Z,93067.84
2023-04-17T09:03:08.273Z,93080.91
2023-04-17T09:04:05.578Z,93073.66
2023-04-17T09:05:02.732Z,93079.03
2023-04-17T09:05:59.682Z,93080.94
2023-04-17T09:06:56.350Z,93078.56
2023-04-17T09:08:21.818Z,93073.63
2023-04-17T09:09:18.407Z,93075.59
2023-04-17T09:10:15.010Z,93059.09
2023-04-17T09:11:17.861Z,93076.75
2023-04-17T09:12:14.608Z,93083.63
2023-04-17T09:13:14.794Z,93077.44
2023-04-17T09:14:30.602Z,93077.44
2023-04-17T09:15:27.561Z,93070.88
2023-04-17T09:16:28.503Z,93075.19
2023-04-17T09:17:34.428Z,93089.00
2023-04-17T09:18:32.360Z,93079.41
2023-04-17T09:19:28.873Z,93071.34
2023-04-17T09:20:25.554Z,93071.59
2023-04-17T09:21:28.345Z,93059.72
2023-04-17T09:22:24.919Z,93060.31
2023-04-17T09:23:23.444Z,93074.94
2023-04-17T09:24:33.578Z,93076.59
2023-04-17T09:25:30.371Z,93071.66
2023-04-17T09:26:31.092Z,93076.69
2023-04-17T09:27:29.358Z,93077.88
2023-04-17T09:28:26.386Z,93027.38
2023-04-17T09:29:23.125Z,93079.53
2023-04-17T09:30:20.421Z,93073.41
2023-04-17T09:31:19.955Z,93079.50
2023-04-17T09:32:16.695Z,93080.00
2023-04-17T09:33:13.255Z,93065.94
2023-04-17T09:34:12.149Z,93078.28
2023-04-17T09:35:09.041Z,93082.88
2023-04-17T09:36:21.924Z,93064.47
2023-04-17T09:37:19.439Z,93077.47
2023-04-17T09:38:16.172Z,93075.97
2023-04-17T09:39:21.220Z,93080.53
2023-04-17T09:40:19.524Z,93044.13
2023-04-17T09:41:42.588Z,93073.66
2023-04-17T09:42:54.273Z,93077.09
2023-04-17T09:43:54.783Z,93073.28
2023-04-17T09:44:54.079Z,93071.31
2023-04-17T09:45:53.213Z,93078.63
2023-04-17T09:46:50.857Z,93079.03
2023-04-17T09:47:48.089Z,93073.63
2023-04-17T09:48:46.090Z,93071.25
2023-04-17T09:49:49.794Z,93066.31
2023-04-17T09:50:47.675Z,93066.72
2023-04-17T09:51:45.064Z,93062.88
2023-04-17T09:52:43.690Z,93066.72
2023-04-17T09:53:40.840Z,93076.72
2023-04-17T09:54:40.202Z,93075.97
2023-04-17T09:55:38.876Z,93078.13
2023-04-17T09:56:37.752Z,93074.44
2023-04-17T09:57:34.465Z,93070.97
2023-04-17T09:58:31.169Z,93071.34
2023-04-17T09:59:28.731Z,93044.53
2023-04-17T10:00:27.834Z,93064.81
2023-04-17T10:01:26.181Z,93068.66
2023-04-17T10:02:23.347Z,93067.91
2023-04-17T10:03:20.883Z,93066.34
2023-04-17T10:04:19.568Z,92978.19
2023-04-17T10:05:17.656Z,93067.03
2023-04-17T10:06:15.544Z,93057.56
2023-04-17T10:07:13.268Z,92981.38
2023-04-17T10:08:10.002Z,93060.09
2023-04-17T10:09:08.232Z,93032.94
2023-04-17T10:10:09.450Z,93057.53
2023-04-17T10:11:07.634Z,93053.31
2023-04-17T10:12:05.526Z,93048.84
2023-04-17T10:13:08.303Z,93047.78
2023-04-17T10:14:17.941Z,93052.72
2023-04-17T10:15:16.007Z,93051.63
2023-04-17T10:16:13.080Z,93021.44
2023-04-17T10:17:31.863Z,93052.88
2023-04-17T10:18:28.984Z,93066.00
2023-04-17T10:19:27.629Z,93061.38
2023-04-17T10:20:24.395Z,93069.78
2023-04-17T10:21:23.248Z,93060.22
2023-04-17T10:22:19.898Z,93059.09
2023-04-17T10:23:46.418Z,93065.63
2023-04-17T10:24:43.417Z,93067.50
2023-04-17T10:25:40.070Z,93061.28
2023-04-17T10:26:37.855Z,93062.00
2023-04-17T10:27:42.854Z,93060.22
2023-04-17T10:28:50.417Z,93068.69
2023-04-17T10:29:58.405Z,93060.47
2023-04-17T10:30:55.574Z,93059.03
2023-04-17T10:32:11.028Z,93063.31
2023-04-17T10:33:22.010Z,93067.53
2023-04-17T10:34:35.281Z,93048.38
2023-04-17T10:35:35.052Z,93064.44
2023-04-17T10:36:40.802Z,93075.97
2023-04-17T10:37:52.746Z,93059.47
2023-04-17T10:38:49.461Z,93060.22
2023-04-17T10:40:10.533Z,93062.88
2023-04-17T10:41:09.464Z,93061.41
2023-04-17T10:42:06.827Z,93072.13
2023-04-17T10:43:20.493Z,93057.19
2023-04-17T10:44:18.427Z,93063.28
2023-04-17T10:45:19.327Z,92967.91
2023-04-17T10:46:16.135Z,93062.47
2023-04-17T10:47:16.000Z,93059.41
2023-04-17T10:48:28.211Z,93063.72
2023-04-17T10:49:24.957Z,93064.09
2023-04-17T10:50:28.637Z,93023.81
2023-04-17T10:51:27.128Z,93062.91
2023-04-17T10:52:32.994Z,93059.84
2023-04-17T10:53:43.459Z,93054.88
2023-04-17T10:55:08.127Z,93049.53
2023-04-17T10:56:05.448Z,93046.84
2023-04-17T10:57:07.853Z,93053.31
2023-04-17T10:58:13.822Z,93057.59
2023-04-17T10:59:14.479Z,93054.69
2023-04-17T11:00:13.933Z,93049.91
2023-04-17T11:01:11.473Z,93059.06
2023-04-17T11:02:08.318Z,93058.72
2023-04-17T11:03:07.072Z,93053.34
2023-04-17T11:04:04.887Z,93052.19
2023-04-17T11:05:11.129Z,93058.59
2023-04-17T11:06:08.078Z,93056.81
2023-04-17T11:07:04.807Z,93058.25
2023-04-17T11:08:01.629Z,93047.97
2023-04-17T11:08:59.619Z,93063.69
2023-04-17T11:09:56.259Z,93055.63
2023-04-17T11:10:54.302Z,93054.44
2023-04-17T11:11:51.124Z,93059.78
2023-04-17T11:12:49.024Z,93052.88
2023-04-17T11:13:47.145Z,93014.13
2023-04-17T11:14:43.825Z,93061.00
2023-04-17T11:15:40.705Z,93054.88
2023-04-17T11:16:38.989Z,93047.50
2023-04-17T11:17:38.560Z,93055.00
2023-04-17T11:18:35.213Z,93050.63
2023-04-17T11:19:32.450Z,93054.28
2023-04-17T11:20:35.857Z,93018.16
2023-04-17T11:21:33.409Z,93052.03